Time;durP1;ratioP1;P1;durP2;ratioP2;P2;SDS_P1;SDS_P2;PMS_P1;PMS_P2;Temp;Humidity;BMP_temperature;BMP_pressure;BME280_temperature;BME280_humidity;BME280_pressure;Samples;Min_cycle;Max_cycle;Signal;HPM_P1;HPM_P2
2023/12/20 00:00:24;;;;;;;30.40;14.70;;;;;;;;;;4962488;28;20053;-69
2023/12/20 00:02:50;;;;;;;24.55;10.23;;;;;;;;;;4957578;28;20521;-70
2023/12/20 00:05:17;;;;;;;10.00;4.53;;;;;;;;;;4966092;28;20112;-69
2023/12/20 00:07:43;;;;;;;7.95;4.70;;;;;;;;;;4966681;28;20406;-70
2023/12/20 00:10:10;;;;;;;12.88;2.95;;;;;;;;;;4966566;28;20057;-70
2023/12/20 00:12:36;;;;;;;10.55;3.63;;;;;;;;;;4965650;28;20105;-69
2023/12/20 00:15:03;;;;;;;10.75;3.83;;;;;;;;;;4966720;28;20486;-69
2023/12/20 00:17:29;;;;;;;13.80;2.95;;;;;;;;;;4981506;28;20034;-71
2023/12/20 00:19:55;;;;;;;7.95;2.58;;;;;;;;;;4981424;28;20058;-70
2023/12/20 00:22:21;;;;;;;10.32;3.63;;;;;;;;;;4965902;28;20037;-69
2023/12/20 00:24:47;;;;;;;10.88;3.22;;;;;;;;;;4969102;28;20038;-70
2023/12/20 00:27:14;;;;;;;8.38;2.38;;;;;;;;;;4980921;28;20036;-70
2023/12/20 00:29:42;;;;;;;6.50;2.78;;;;;;;;;;4979127;28;20631;-70
2023/12/20 00:32:09;;;;;;;16.30;3.85;;;;;;;;;;4976818;28;20023;-69
2023/12/20 00:34:35;;;;;;;7.70;2.65;;;;;;;;;;4962691;28;20442;-70
2023/12/20 00:37:01;;;;;;;9.13;2.92;;;;;;;;;;4961189;28;20394;-70
2023/12/20 00:39:27;;;;;;;8.68;2.58;;;;;;;;;;4966053;28;20061;-70
2023/12/20 00:41:53;;;;;;;8.27;3.40;;;;;;;;;;4964615;28;20069;-70
2023/12/20 00:44:20;;;;;;;6.90;3.15;;;;;;;;;;4967218;28;20034;-70
2023/12/20 00:46:46;;;;;;;14.07;3.65;;;;;;;;;;4967566;28;20093;-69
2023/12/20 00:49:15;;;;;;;10.77;2.90;;;;;;;;;;4977940;28;20054;-69
2023/12/20 00:51:41;;;;;;;7.90;2.80;;;;;;;;;;4961850;28;20047;-69
2023/12/20 00:54:07;;;;;;;6.65;2.38;;;;;;;;;;4966985;28;20138;-71
2023/12/20 00:56:33;;;;;;;2.50;1.85;;;;;;;;;;4965812;28;20081;-68
2023/12/20 00:58:59;;;;;;;9.52;3.33;;;;;;;;;;4978771;28;20046;-67
2023/12/20 01:01:25;;;;;;;3.35;2.15;;;;;;;;;;4964146;28;20136;-68
2023/12/20 01:03:52;;;;;;;4.38;2.13;;;;;;;;;;4965266;28;20031;-68
2023/12/20 01:06:19;;;;;;;5.40;2.33;;;;;;;;;;4965100;28;20488;-68
2023/12/20 01:08:45;;;;;;;7.68;2.38;;;;;;;;;;4967975;28;20031;-67
2023/12/20 01:11:11;;;;;;;5.55;2.00;;;;;;;;;;4964048;28;20391;-68
2023/12/20 01:13:37;;;;;;;7.25;2.35;;;;;;;;;;4991445;28;20031;-68
2023/12/20 01:16:05;;;;;;;6.38;2.60;;;;;;;;;;4970140;28;20034;-68
2023/12/20 01:18:32;;;;;;;6.65;2.03;;;;;;;;;;4986646;28;20486;-68
2023/12/20 01:21:03;;;;;;;7.53;2.58;;;;;;;;;;4963959;28;20368;-68
2023/12/20 01:23:29;;;;;;;8.40;2.28;;;;;;;;;;4965273;28;20023;-69
2023/12/20 01:25:55;;;;;;;7.53;2.67;;;;;;;;;;4961261;28;20483;-68
2023/12/20 01:28:22;;;;;;;8.60;2.10;;;;;;;;;;4966615;28;20038;-68
2023/12/20 01:30:48;;;;;;;7.80;3.10;;;;;;;;;;4958815;28;20031;-68
2023/12/20 01:33:14;;;;;;;9.98;3.08;;;;;;;;;;4966207;28;20553;-68
2023/12/20 01:35:41;;;;;;;5.20;2.60;;;;;;;;;;4980621;28;20122;-67
2023/12/20 01:38:07;;;;;;;6.53;2.53;;;;;;;;;;4969583;28;20123;-68
2023/12/20 01:40:33;;;;;;;5.22;3.08;;;;;;;;;;4963373;28;20054;-68
2023/12/20 01:43:09;;;;;;;8.90;2.33;;;;;;;;;;4964589;28;20136;-68
2023/12/20 01:45:35;;;;;;;11.23;2.28;;;;;;;;;;4964665;28;20031;-67
2023/12/20 01:48:03;;;;;;;10.82;2.10;;;;;;;;;;4979752;28;20039;-68
2023/12/20 01:50:29;;;;;;;2.97;2.10;;;;;;;;;;4973998;28;20033;-67
2023/12/20 01:52:57;;;;;;;2.58;2.38;;;;;;;;;;4968052;28;20023;-68
2023/12/20 01:55:24;;;;;;;5.68;3.20;;;;;;;;;;4983125;28;20031;-69
2023/12/20 01:57:51;;;;;;;10.45;2.55;;;;;;;;;;4978680;28;20035;-68
2023/12/20 02:00:17;;;;;;;12.82;2.20;;;;;;;;;;4973622;28;20608;-68
2023/12/20 02:02:45;;;;;;;9.40;3.35;;;;;;;;;;4960066;28;20284;-69
2023/12/20 02:05:11;;;;;;;3.28;1.85;;;;;;;;;;4964029;28;20039;-70
2023/12/20 02:07:37;;;;;;;6.63;1.90;;;;;;;;;;4971100;28;20082;-68
2023/12/20 02:10:04;;;;;;;8.82;2.40;;;;;;;;;;4977375;28;20065;-68
2023/12/20 02:12:30;;;;;;;5.93;2.30;;;;;;;;;;4957109;28;20096;-68
2023/12/20 02:14:57;;;;;;;10.88;2.75;;;;;;;;;;4958424;28;20027;-68
2023/12/20 02:17:24;;;;;;;7.72;2.65;;;;;;;;;;4961830;28;20590;-68
2023/12/20 02:19:50;;;;;;;9.60;2.63;;;;;;;;;;4973957;28;20039;-68
2023/12/20 02:22:17;;;;;;;3.22;2.00;;;;;;;;;;4968253;28;20031;-68
2023/12/20 02:24:43;;;;;;;9.52;2.33;;;;;;;;;;4966363;28;20023;-68
2023/12/20 02:27:09;;;;;;;8.60;2.20;;;;;;;;;;4967452;28;20035;-68
2023/12/20 02:29:35;;;;;;;4.57;2.10;;;;;;;;;;4981375;28;20540;-68
2023/12/20 02:32:02;;;;;;;6.30;2.63;;;;;;;;;;4971707;28;20068;-69
2023/12/20 02:34:31;;;;;;;4.55;2.25;;;;;;;;;;4959560;28;20811;-69
2023/12/20 02:36:57;;;;;;;5.28;2.33;;;;;;;;;;4961732;28;20702;-68
2023/12/20 02:39:24;;;;;;;9.30;2.33;;;;;;;;;;4969764;28;20089;-68
2023/12/20 02:41:50;;;;;;;3.13;2.55;;;;;;;;;;4963673;28;20031;-68
2023/12/20 02:44:17;;;;;;;9.10;1.98;;;;;;;;;;4977713;28;20096;-68
2023/12/20 02:46:43;;;;;;;6.63;2.20;;;;;;;;;;4962412;28;20031;-68
2023/12/20 02:49:09;;;;;;;5.35;2.92;;;;;;;;;;4964915;28;20034;-70
2023/12/20 02:51:38;;;;;;;8.05;2.13;;;;;;;;;;4959379;28;20019;-68
2023/12/20 02:54:05;;;;;;;11.32;2.05;;;;;;;;;;4969732;28;20090;-69
2023/12/20 02:56:32;;;;;;;3.20;1.58;;;;;;;;;;4966813;28;20460;-69
2023/12/20 02:58:58;;;;;;;2.13;1.67;;;;;;;;;;4970004;28;20057;-69
2023/12/20 03:01:24;;;;;;;6.90;3.05;;;;;;;;;;4995735;28;20382;-68
2023/12/20 03:03:50;;;;;;;2.90;1.85;;;;;;;;;;4959938;28;20520;-68
2023/12/20 03:06:20;;;;;;;5.45;2.22;;;;;;;;;;4994109;28;20031;-68
2023/12/20 03:08:47;;;;;;;10.00;2.65;;;;;;;;;;4963346;28;20363;-68
2023/12/20 03:11:13;;;;;;;9.57;2.33;;;;;;;;;;4966582;28;20031;-68
2023/12/20 03:13:39;;;;;;;3.72;1.80;;;;;;;;;;5000275;28;20023;-72
2023/12/20 03:16:09;;;;;;;2.95;1.88;;;;;;;;;;4958469;28;20496;-68
2023/12/20 03:18:35;;;;;;;8.75;2.65;;;;;;;;;;4961199;28;20024;-66
2023/12/20 03:21:01;;;;;;;5.60;2.95;;;;;;;;;;4958588;28;20031;-64
2023/12/20 03:23:27;;;;;;;7.38;2.35;;;;;;;;;;4965334;28;20027;-66
2023/12/20 03:25:53;;;;;;;2.45;2.00;;;;;;;;;;4982873;28;20486;-66
2023/12/20 03:28:20;;;;;;;5.88;2.63;;;;;;;;;;4966526;28;20034;-67
2023/12/20 03:30:46;;;;;;;4.38;1.60;;;;;;;;;;4995730;28;20434;-67
2023/12/20 03:33:12;;;;;;;3.17;1.80;;;;;;;;;;4957258;28;20023;-67
2023/12/20 03:35:38;;;;;;;10.27;2.15;;;;;;;;;;4970312;28;20523;-67
2023/12/20 03:38:05;;;;;;;7.93;2.28;;;;;;;;;;4961526;28;20035;-67
2023/12/20 03:40:33;;;;;;;5.70;2.03;;;;;;;;;;4975394;28;20114;-67
2023/12/20 03:43:00;;;;;;;4.70;1.65;;;;;;;;;;4966750;28;20023;-66
2023/12/20 03:45:26;;;;;;;2.70;1.75;;;;;;;;;;4966457;28;20023;-67
2023/12/20 03:47:58;;;;;;;4.88;1.77;;;;;;;;;;4955265;28;20041;-66
2023/12/20 03:50:24;;;;;;;5.50;1.70;;;;;;;;;;4994368;28;20039;-67
2023/12/20 03:52:50;;;;;;;5.82;1.90;;;;;;;;;;4975529;28;20031;-67
2023/12/20 03:55:16;;;;;;;5.55;2.03;;;;;;;;;;4965750;28;20088;-65
2023/12/20 03:57:43;;;;;;;3.42;1.85;;;;;;;;;;4968791;28;20077;-66
2023/12/20 04:00:12;;;;;;;6.18;1.83;;;;;;;;;;4974055;28;20105;-66
2023/12/20 04:02:39;;;;;;;2.30;1.73;;;;;;;;;;4962390;28;20119;-66
2023/12/20 04:05:06;;;;;;;5.32;1.80;;;;;;;;;;4971687;28;20118;-67
2023/12/20 04:07:32;;;;;;;1.88;1.48;;;;;;;;;;4995904;28;20047;-68
2023/12/20 04:09:59;;;;;;;10.30;1.90;;;;;;;;;;4967981;28;20056;-66
2023/12/20 04:12:26;;;;;;;3.10;1.90;;;;;;;;;;4959318;28;20036;-66
2023/12/20 04:14:52;;;;;;;2.97;1.83;;;;;;;;;;4975902;28;20073;-67
2023/12/20 04:17:18;;;;;;;4.53;1.98;;;;;;;;;;5001956;28;20030;-67
2023/12/20 04:19:45;;;;;;;6.13;2.10;;;;;;;;;;4996923;28;20396;-67
2023/12/20 04:22:11;;;;;;;4.90;2.42;;;;;;;;;;4998511;28;20088;-67
2023/12/20 04:24:37;;;;;;;6.55;1.90;;;;;;;;;;4959890;28;20034;-67
2023/12/20 04:27:04;;;;;;;4.90;1.88;;;;;;;;;;4988322;28;20029;-67
2023/12/20 04:29:30;;;;;;;6.97;1.98;;;;;;;;;;4963637;28;20502;-68
2023/12/20 04:31:56;;;;;;;4.43;2.05;;;;;;;;;;4966635;28;20117;-67
2023/12/20 04:34:23;;;;;;;6.18;2.30;;;;;;;;;;4986266;28;20056;-68
2023/12/20 04:36:49;;;;;;;2.58;1.70;;;;;;;;;;5018289;28;20027;-67
2023/12/20 04:39:15;;;;;;;2.85;1.52;;;;;;;;;;4967558;28;20035;-66
2023/12/20 04:41:41;;;;;;;2.20;1.50;;;;;;;;;;5004376;28;20122;-68
2023/12/20 04:44:08;;;;;;;5.10;1.60;;;;;;;;;;4966299;28;20038;-67
2023/12/20 04:46:34;;;;;;;15.82;2.35;;;;;;;;;;4972789;28;20110;-67
2023/12/20 04:49:00;;;;;;;9.23;2.22;;;;;;;;;;4999401;28;20099;-67
2023/12/20 04:51:26;;;;;;;2.00;1.58;;;;;;;;;;4981592;28;20373;-68
2023/12/20 04:53:52;;;;;;;2.92;1.70;;;;;;;;;;5016353;28;20021;-67
2023/12/20 04:56:19;;;;;;;5.65;2.08;;;;;;;;;;4983182;28;20050;-70
2023/12/20 04:58:45;;;;;;;2.65;1.77;;;;;;;;;;4963560;28;20031;-68
2023/12/20 05:01:12;;;;;;;2.47;1.60;;;;;;;;;;4970149;28;20027;-67
2023/12/20 05:03:38;;;;;;;6.15;1.67;;;;;;;;;;4986950;28;20031;-66
2023/12/20 05:06:04;;;;;;;4.60;1.90;;;;;;;;;;4969516;28;20026;-67
2023/12/20 05:08:30;;;;;;;9.00;2.42;;;;;;;;;;4988083;28;20092;-67
2023/12/20 05:10:57;;;;;;;1.98;1.70;;;;;;;;;;4968632;28;20112;-67
2023/12/20 05:13:23;;;;;;;3.97;2.05;;;;;;;;;;4990354;28;20395;-67
2023/12/20 05:15:49;;;;;;;3.58;1.70;;;;;;;;;;4963847;28;20037;-67
2023/12/20 05:18:15;;;;;;;5.18;1.77;;;;;;;;;;4960208;28;20084;-67
2023/12/20 05:20:41;;;;;;;3.03;1.98;;;;;;;;;;4974080;28;20036;-67
2023/12/20 05:23:08;;;;;;;8.35;1.98;;;;;;;;;;4988313;28;20065;-67
2023/12/20 05:25:34;;;;;;;3.17;1.73;;;;;;;;;;5012795;28;20517;-67
2023/12/20 05:28:00;;;;;;;2.33;2.10;;;;;;;;;;4975994;28;20041;-67
2023/12/20 05:30:26;;;;;;;4.60;1.92;;;;;;;;;;4964755;28;20038;-67
2023/12/20 05:32:52;;;;;;;2.88;2.20;;;;;;;;;;4964801;28;20162;-66
2023/12/20 05:35:19;;;;;;;3.90;1.58;;;;;;;;;;4964451;28;20378;-68
2023/12/20 05:37:45;;;;;;;7.50;2.35;;;;;;;;;;4964273;28;20110;-68
2023/12/20 05:40:12;;;;;;;5.25;1.55;;;;;;;;;;4960792;28;20473;-67
2023/12/20 05:42:38;;;;;;;3.70;1.77;;;;;;;;;;4961345;28;20035;-67
2023/12/20 05:45:05;;;;;;;8.32;2.25;;;;;;;;;;4962957;28;20030;-67
2023/12/20 05:47:31;;;;;;;6.05;1.52;;;;;;;;;;4969158;28;20426;-67
2023/12/20 05:49:58;;;;;;;8.90;2.13;;;;;;;;;;4979618;28;20028;-67
2023/12/20 05:52:30;;;;;;;5.38;1.58;;;;;;;;;;4957517;28;20046;-67
2023/12/20 05:54:57;;;;;;;6.57;2.03;;;;;;;;;;4959982;28;20136;-68
2023/12/20 05:57:24;;;;;;;2.90;1.70;;;;;;;;;;5016144;28;20086;-67
2023/12/20 05:59:50;;;;;;;8.65;2.13;;;;;;;;;;4966062;28;20492;-68
2023/12/20 06:02:16;;;;;;;7.75;1.75;;;;;;;;;;4979668;28;20040;-67
2023/12/20 06:04:43;;;;;;;8.23;2.10;;;;;;;;;;4976385;28;21954;-67
2023/12/20 06:07:12;;;;;;;4.78;1.80;;;;;;;;;;4968063;28;20031;-67
2023/12/20 06:09:38;;;;;;;3.03;1.85;;;;;;;;;;4962980;28;20495;-67
2023/12/20 06:12:04;;;;;;;3.67;1.95;;;;;;;;;;4961695;28;20035;-67
2023/12/20 06:14:31;;;;;;;3.58;1.98;;;;;;;;;;4971038;28;20026;-69
2023/12/20 06:16:57;;;;;;;4.38;1.88;;;;;;;;;;5001908;28;20452;-66
2023/12/20 06:19:23;;;;;;;9.27;2.70;;;;;;;;;;4967595;28;20042;-69
2023/12/20 06:21:53;;;;;;;2.00;1.55;;;;;;;;;;4961756;28;20592;-67
2023/12/20 06:24:19;;;;;;;5.30;1.98;;;;;;;;;;4963544;28;20027;-67
2023/12/20 06:26:45;;;;;;;8.38;2.15;;;;;;;;;;4997091;28;20125;-67
2023/12/20 06:29:11;;;;;;;5.97;2.10;;;;;;;;;;4962920;28;20028;-66
2023/12/20 06:31:38;;;;;;;7.20;2.22;;;;;;;;;;4995372;28;20089;-67
2023/12/20 06:34:04;;;;;;;8.73;3.50;;;;;;;;;;4964089;28;20093;-68
2023/12/20 06:36:30;;;;;;;2.53;1.75;;;;;;;;;;4968819;28;20114;-67
2023/12/20 06:38:56;;;;;;;2.97;1.92;;;;;;;;;;4992852;28;20018;-67
2023/12/20 06:41:24;;;;;;;6.75;2.08;;;;;;;;;;5018624;28;20036;-69
2023/12/20 06:43:51;;;;;;;5.72;1.70;;;;;;;;;;4985050;28;20066;-67
2023/12/20 06:46:17;;;;;;;2.45;1.83;;;;;;;;;;4968886;28;20069;-66
2023/12/20 06:48:47;;;;;;;2.67;2.22;;;;;;;;;;5027965;28;20025;-66
2023/12/20 06:51:19;;;;;;;2.88;1.77;;;;;;;;;;4970272;28;20035;-69
2023/12/20 06:53:45;;;;;;;3.72;2.13;;;;;;;;;;4964143;28;20448;-66
2023/12/20 06:56:14;;;;;;;3.75;2.05;;;;;;;;;;4961027;28;20058;-68
2023/12/20 06:58:40;;;;;;;2.05;1.85;;;;;;;;;;4956107;28;20039;-68
2023/12/20 07:01:06;;;;;;;1.77;1.55;;;;;;;;;;4972163;28;20041;-67
2023/12/20 07:03:41;;;;;;;4.28;1.75;;;;;;;;;;4963344;28;20038;-67
2023/12/20 07:06:08;;;;;;;5.20;2.15;;;;;;;;;;4967062;28;20035;-68
2023/12/20 07:08:44;;;;;;;5.25;1.83;;;;;;;;;;4971645;28;20053;-67
2023/12/20 07:11:10;;;;;;;2.65;1.75;;;;;;;;;;4967054;28;20130;-67
2023/12/20 07:13:36;;;;;;;3.92;2.10;;;;;;;;;;4967805;28;20518;-66
2023/12/20 07:16:03;;;;;;;5.40;1.80;;;;;;;;;;4974975;28;20026;-67
2023/12/20 07:18:29;;;;;;;6.95;2.92;;;;;;;;;;5003614;28;20701;-68
2023/12/20 07:20:55;;;;;;;4.10;1.85;;;;;;;;;;4958620;28;20099;-69
2023/12/20 07:23:22;;;;;;;5.68;2.63;;;;;;;;;;4968496;28;20075;-67
2023/12/20 07:25:48;;;;;;;6.47;2.03;;;;;;;;;;4929368;28;20034;-69
2023/12/20 07:28:14;;;;;;;11.57;2.25;;;;;;;;;;5011369;28;20036;-66
2023/12/20 07:30:40;;;;;;;8.25;2.30;;;;;;;;;;4999128;28;20035;-67
2023/12/20 07:33:08;;;;;;;4.38;2.20;;;;;;;;;;5016516;28;20113;-65
2023/12/20 07:35:45;;;;;;;5.22;1.88;;;;;;;;;;5006054;28;20023;-67
2023/12/20 07:38:12;;;;;;;6.97;2.13;;;;;;;;;;4972995;28;20543;-65
2023/12/20 07:40:39;;;;;;;10.48;2.55;;;;;;;;;;5024057;28;20390;-64
2023/12/20 07:43:06;;;;;;;5.53;2.30;;;;;;;;;;4972703;28;20033;-63
2023/12/20 07:45:33;;;;;;;7.95;2.22;;;;;;;;;;5012329;28;20032;-62
2023/12/20 07:48:02;;;;;;;11.10;2.78;;;;;;;;;;5006514;28;20045;-66
2023/12/20 07:50:28;;;;;;;8.73;2.25;;;;;;;;;;5011392;28;20545;-68
2023/12/20 07:52:54;;;;;;;9.73;2.75;;;;;;;;;;4995579;28;20167;-67
2023/12/20 07:55:21;;;;;;;4.10;2.20;;;;;;;;;;5016896;28;20025;-69
2023/12/20 07:57:47;;;;;;;6.20;2.55;;;;;;;;;;4962209;28;20050;-69
2023/12/20 08:00:33;;;;;;;7.47;2.35;;;;;;;;;;5040969;28;20076;-71
2023/12/20 08:02:59;;;;;;;8.85;2.30;;;;;;;;;;5013656;28;20036;-69
2023/12/20 08:05:26;;;;;;;8.63;2.65;;;;;;;;;;5047326;28;20071;-69
2023/12/20 08:07:52;;;;;;;5.00;2.25;;;;;;;;;;5047922;28;20033;-68
2023/12/20 08:10:19;;;;;;;9.48;2.25;;;;;;;;;;5043201;28;20037;-68
2023/12/20 08:12:45;;;;;;;8.85;2.47;;;;;;;;;;4995812;28;20102;-68
2023/12/20 08:15:11;;;;;;;15.40;2.28;;;;;;;;;;5037151;28;20025;-68
2023/12/20 08:17:37;;;;;;;6.47;2.17;;;;;;;;;;5042028;28;20393;-68
2023/12/20 08:20:04;;;;;;;8.60;2.25;;;;;;;;;;5047812;28;20305;-70
2023/12/20 08:22:30;;;;;;;3.42;1.63;;;;;;;;;;5040670;28;20548;-67
2023/12/20 08:24:57;;;;;;;12.73;3.35;;;;;;;;;;5038421;28;20068;-67
2023/12/20 08:27:23;;;;;;;7.10;2.65;;;;;;;;;;5044526;28;20384;-67
2023/12/20 08:29:50;;;;;;;6.70;2.00;;;;;;;;;;5048294;28;20025;-68
2023/12/20 08:32:16;;;;;;;4.25;1.83;;;;;;;;;;5038504;28;20027;-72
2023/12/20 08:34:43;;;;;;;3.97;2.10;;;;;;;;;;5045517;28;20599;-66
2023/12/20 08:37:09;;;;;;;7.07;1.92;;;;;;;;;;5040440;28;20493;-67
2023/12/20 08:39:35;;;;;;;5.53;2.60;;;;;;;;;;5040353;28;20027;-68
2023/12/20 08:42:01;;;;;;;8.13;2.63;;;;;;;;;;5042916;28;20068;-69
2023/12/20 08:44:27;;;;;;;4.43;2.03;;;;;;;;;;5042950;28;20451;-67
2023/12/20 08:46:57;;;;;;;9.63;2.22;;;;;;;;;;5046379;28;20056;-67
2023/12/20 08:49:23;;;;;;;11.98;3.47;;;;;;;;;;5029781;28;20643;-69
2023/12/20 08:52:04;;;;;;;7.60;2.20;;;;;;;;;;5020619;28;20488;-68
2023/12/20 08:54:30;;;;;;;10.52;3.08;;;;;;;;;;5037873;28;20040;-70
2023/12/20 08:56:57;;;;;;;9.77;3.78;;;;;;;;;;5012648;28;20081;-68
2023/12/20 08:59:27;;;;;;;12.05;2.45;;;;;;;;;;5028236;28;20056;-68
2023/12/20 09:01:56;;;;;;;7.70;3.63;;;;;;;;;;4976816;28;20043;-66
2023/12/20 09:04:22;;;;;;;5.55;2.45;;;;;;;;;;5020873;28;20503;-68
2023/12/20 09:06:48;;;;;;;7.65;3.28;;;;;;;;;;4984987;28;20033;-67
2023/12/20 09:09:14;;;;;;;15.45;3.00;;;;;;;;;;5016112;28;20467;-66
2023/12/20 09:11:42;;;;;;;7.35;2.45;;;;;;;;;;5024923;28;20028;-69
2023/12/20 09:14:08;;;;;;;13.75;3.53;;;;;;;;;;5016810;28;20036;-70
2023/12/20 09:16:35;;;;;;;6.20;2.50;;;;;;;;;;5022425;28;20114;-69
2023/12/20 09:19:01;;;;;;;9.63;2.75;;;;;;;;;;5002041;28;20067;-69
2023/12/20 09:21:27;;;;;;;5.97;2.50;;;;;;;;;;4980677;28;20608;-68
2023/12/20 09:23:54;;;;;;;11.18;2.60;;;;;;;;;;5016462;28;20030;-70
2023/12/20 09:26:20;;;;;;;6.63;3.20;;;;;;;;;;5019137;28;20103;-70
2023/12/20 09:28:47;;;;;;;5.38;2.70;;;;;;;;;;5017759;28;20031;-68
2023/12/20 09:31:13;;;;;;;18.17;3.30;;;;;;;;;;5025549;28;20566;-69
2023/12/20 09:33:42;;;;;;;7.65;2.95;;;;;;;;;;4970806;28;20459;-70
2023/12/20 09:36:08;;;;;;;11.88;2.65;;;;;;;;;;4996738;28;20030;-65
2023/12/20 09:38:34;;;;;;;14.15;3.20;;;;;;;;;;5022241;28;20038;-64
2023/12/20 09:41:03;;;;;;;10.35;3.15;;;;;;;;;;5011460;28;21038;-64
2023/12/20 09:43:31;;;;;;;13.75;3.03;;;;;;;;;;5011374;28;20415;-64
2023/12/20 09:46:02;;;;;;;15.43;2.97;;;;;;;;;;5034989;28;20032;-64
2023/12/20 09:48:28;;;;;;;11.50;3.92;;;;;;;;;;4957665;28;20027;-65
2023/12/20 09:50:58;;;;;;;10.98;3.88;;;;;;;;;;4996821;28;20061;-68
2023/12/20 09:53:29;;;;;;;11.27;3.80;;;;;;;;;;5030969;28;20026;-69
2023/12/20 09:56:04;;;;;;;12.52;3.55;;;;;;;;;;5014598;28;20143;-68
2023/12/20 09:58:30;;;;;;;14.32;3.40;;;;;;;;;;4981346;28;20033;-66
2023/12/20 10:01:00;;;;;;;14.52;4.13;;;;;;;;;;5011666;28;20388;-67
2023/12/20 10:03:26;;;;;;;11.25;2.92;;;;;;;;;;4958165;28;20026;-67
2023/12/20 10:05:57;;;;;;;11.85;3.42;;;;;;;;;;4965207;28;20450;-71
2023/12/20 10:08:24;;;;;;;13.23;3.10;;;;;;;;;;4990435;28;20417;-66
2023/12/20 10:10:51;;;;;;;10.90;3.15;;;;;;;;;;4997474;28;20036;-69
2023/12/20 10:13:17;;;;;;;13.20;4.00;;;;;;;;;;5022011;28;20038;-68
2023/12/20 10:15:44;;;;;;;12.95;3.85;;;;;;;;;;4964613;28;20064;-67
2023/12/20 10:18:10;;;;;;;14.60;3.55;;;;;;;;;;4994743;28;20030;-69
2023/12/20 10:20:37;;;;;;;14.48;3.65;;;;;;;;;;5047225;28;20033;-69
2023/12/20 10:23:03;;;;;;;14.88;3.75;;;;;;;;;;5016045;28;20023;-67
2023/12/20 10:25:31;;;;;;;12.18;3.45;;;;;;;;;;4988927;28;20019;-69
2023/12/20 10:28:14;;;;;;;14.57;4.15;;;;;;;;;;5039418;28;20025;-67
2023/12/20 10:30:41;;;;;;;10.90;3.22;;;;;;;;;;4961543;28;20148;-65
2023/12/20 10:33:07;;;;;;;12.30;4.25;;;;;;;;;;5012704;28;20031;-67
2023/12/20 10:35:34;;;;;;;12.60;3.67;;;;;;;;;;5006600;28;20260;-67
2023/12/20 10:38:03;;;;;;;13.00;4.78;;;;;;;;;;5021369;28;20520;-66
2023/12/20 10:40:30;;;;;;;12.98;4.30;;;;;;;;;;5030425;28;20096;-68
2023/12/20 10:42:56;;;;;;;21.40;4.03;;;;;;;;;;4949215;28;20027;-69
2023/12/20 10:45:23;;;;;;;9.65;3.30;;;;;;;;;;4996849;28;20029;-71
2023/12/20 10:47:53;;;;;;;28.88;5.90;;;;;;;;;;5052810;28;20028;-68
2023/12/20 10:50:23;;;;;;;20.80;5.30;;;;;;;;;;4969175;28;20039;-69
2023/12/20 10:52:55;;;;;;;13.27;4.20;;;;;;;;;;4964826;28;20031;-69
2023/12/20 10:55:21;;;;;;;19.65;4.43;;;;;;;;;;4996247;28;20066;-68
2023/12/20 10:57:50;;;;;;;21.52;3.40;;;;;;;;;;4975062;28;20038;-69
2023/12/20 11:00:18;;;;;;;15.25;4.63;;;;;;;;;;4994637;28;20024;-69
2023/12/20 11:02:47;;;;;;;11.98;3.97;;;;;;;;;;4955342;28;20039;-69
2023/12/20 11:05:13;;;;;;;15.65;4.30;;;;;;;;;;5057062;28;20032;-69
2023/12/20 11:07:43;;;;;;;11.18;3.97;;;;;;;;;;5031096;28;20042;-70
2023/12/20 11:10:15;;;;;;;11.60;4.55;;;;;;;;;;4999081;28;20023;-69
2023/12/20 11:12:51;;;;;;;24.08;4.97;;;;;;;;;;4996584;28;20099;-70
2023/12/20 11:15:18;;;;;;;15.40;3.95;;;;;;;;;;4994280;28;20027;-70
2023/12/20 11:17:47;;;;;;;9.35;3.45;;;;;;;;;;4957772;28;20118;-68
2023/12/20 11:20:13;;;;;;;9.98;3.35;;;;;;;;;;5012909;28;20398;-68
2023/12/20 11:22:41;;;;;;;9.50;3.50;;;;;;;;;;4975284;28;20084;-72
2023/12/20 11:25:11;;;;;;;15.85;5.13;;;;;;;;;;4970697;28;20054;-70
2023/12/20 11:27:41;;;;;;;16.25;3.97;;;;;;;;;;4974383;28;20038;-70
2023/12/20 11:30:08;;;;;;;15.35;4.07;;;;;;;;;;5035895;28;20767;-69
2023/12/20 11:32:35;;;;;;;12.73;4.60;;;;;;;;;;5021231;28;20020;-69
2023/12/20 11:35:17;;;;;;;10.38;3.03;;;;;;;;;;5013739;28;20376;-69
2023/12/20 11:37:43;;;;;;;19.15;4.38;;;;;;;;;;5037032;28;20024;-70
2023/12/20 11:40:14;;;;;;;15.18;3.92;;;;;;;;;;4969783;28;20411;-70
2023/12/20 11:42:41;;;;;;;18.33;4.25;;;;;;;;;;5030624;28;20020;-69
2023/12/20 11:45:11;;;;;;;15.38;3.40;;;;;;;;;;5007043;28;20099;-70
2023/12/20 11:47:37;;;;;;;22.17;4.22;;;;;;;;;;5000524;28;20073;-68
2023/12/20 11:50:04;;;;;;;13.68;4.30;;;;;;;;;;4952853;28;20030;-70
2023/12/20 11:52:31;;;;;;;17.77;5.38;;;;;;;;;;4982028;28;20027;-70
2023/12/20 11:54:58;;;;;;;17.50;4.68;;;;;;;;;;4983894;28;20052;-70
2023/12/20 11:57:24;;;;;;;16.33;3.65;;;;;;;;;;4985637;28;20075;-69
2023/12/20 11:59:50;;;;;;;14.20;3.67;;;;;;;;;;4989485;28;20059;-71
2023/12/20 12:02:17;;;;;;;21.33;4.80;;;;;;;;;;5006052;28;20034;-70
2023/12/20 12:04:43;;;;;;;18.38;4.90;;;;;;;;;;5038659;28;20457;-70
2023/12/20 12:07:09;;;;;;;19.52;5.40;;;;;;;;;;5008036;28;20037;-71
2023/12/20 12:09:36;;;;;;;15.02;3.80;;;;;;;;;;4974453;28;20048;-70
2023/12/20 12:12:02;;;;;;;13.15;4.97;;;;;;;;;;4972060;28;20039;-70
2023/12/20 12:14:29;;;;;;;15.25;3.80;;;;;;;;;;4956494;28;20185;-70
2023/12/20 12:16:55;;;;;;;21.60;4.68;;;;;;;;;;4958918;28;20033;-68
2023/12/20 12:19:25;;;;;;;10.82;4.50;;;;;;;;;;4960899;28;20157;-70
2023/12/20 12:21:52;;;;;;;10.73;3.95;;;;;;;;;;4964234;28;20088;-69
2023/12/20 12:24:22;;;;;;;12.18;4.22;;;;;;;;;;4961920;28;20032;-69
2023/12/20 12:26:51;;;;;;;23.00;5.18;;;;;;;;;;4998968;28;20081;-70
2023/12/20 12:29:20;;;;;;;26.98;6.65;;;;;;;;;;5002287;28;20033;-68
2023/12/20 12:31:46;;;;;;;17.92;5.03;;;;;;;;;;5028992;28;20592;-69
2023/12/20 12:34:12;;;;;;;20.73;4.32;;;;;;;;;;5015095;28;20127;-68
2023/12/20 12:36:40;;;;;;;12.95;4.30;;;;;;;;;;5001889;28;20039;-68
2023/12/20 12:39:06;;;;;;;9.27;3.63;;;;;;;;;;4965282;28;20031;-69
2023/12/20 12:41:33;;;;;;;11.05;3.53;;;;;;;;;;4981463;28;20028;-69
2023/12/20 12:43:59;;;;;;;16.52;4.03;;;;;;;;;;4971377;28;20045;-71
2023/12/20 12:46:25;;;;;;;16.38;4.70;;;;;;;;;;4965454;28;20027;-70
2023/12/20 12:48:51;;;;;;;16.50;3.22;;;;;;;;;;4961390;28;20031;-65
2023/12/20 12:51:17;;;;;;;14.75;5.28;;;;;;;;;;5002885;28;20047;-70
2023/12/20 12:53:44;;;;;;;16.92;4.47;;;;;;;;;;5032057;28;20029;-72
2023/12/20 12:56:10;;;;;;;11.18;4.05;;;;;;;;;;4995152;28;20028;-69
2023/12/20 12:58:36;;;;;;;14.32;3.97;;;;;;;;;;5037020;28;20028;-70
2023/12/20 13:01:05;;;;;;;12.23;3.70;;;;;;;;;;5049780;28;20456;-71
2023/12/20 13:03:31;;;;;;;13.43;4.90;;;;;;;;;;5040842;28;20035;-70
2023/12/20 13:05:58;;;;;;;9.07;2.95;;;;;;;;;;5036254;28;20416;-70
2023/12/20 13:08:24;;;;;;;22.20;5.53;;;;;;;;;;5045634;28;20052;-68
2023/12/20 13:10:51;;;;;;;12.02;4.03;;;;;;;;;;5041306;28;20037;-70
2023/12/20 13:13:17;;;;;;;13.75;4.18;;;;;;;;;;5043490;28;20035;-71
2023/12/20 13:15:50;;;;;;;19.90;5.03;;;;;;;;;;5049827;28;20029;-70
2023/12/20 13:18:17;;;;;;;19.35;4.45;;;;;;;;;;5050040;28;20021;-71
2023/12/20 13:20:43;;;;;;;16.17;4.15;;;;;;;;;;5046431;28;20033;-70
2023/12/20 13:23:09;;;;;;;11.70;3.78;;;;;;;;;;5051065;28;20544;-70
2023/12/20 13:25:38;;;;;;;17.67;3.88;;;;;;;;;;5047123;28;20492;-68
2023/12/20 13:28:05;;;;;;;14.07;3.88;;;;;;;;;;5053194;28;20424;-70
2023/12/20 13:30:31;;;;;;;16.23;3.85;;;;;;;;;;5025545;28;20121;-69
2023/12/20 13:32:57;;;;;;;12.85;4.63;;;;;;;;;;5044029;28;20021;-70
2023/12/20 13:35:26;;;;;;;25.20;4.53;;;;;;;;;;5041950;28;20063;-69
2023/12/20 13:37:55;;;;;;;15.13;4.53;;;;;;;;;;5047277;28;20025;-68
2023/12/20 13:40:22;;;;;;;15.45;4.45;;;;;;;;;;5021174;28;20100;-67
2023/12/20 13:42:48;;;;;;;14.27;4.25;;;;;;;;;;5047200;28;20044;-68
2023/12/20 13:45:15;;;;;;;14.45;3.30;;;;;;;;;;5041141;28;20036;-69
2023/12/20 13:47:41;;;;;;;12.88;4.18;;;;;;;;;;5040153;28;20131;-67
2023/12/20 13:50:07;;;;;;;12.10;4.65;;;;;;;;;;5038460;28;20037;-67
2023/12/20 13:52:33;;;;;;;23.02;5.05;;;;;;;;;;5035685;28;20037;-68
2023/12/20 13:55:05;;;;;;;8.73;2.88;;;;;;;;;;5041707;28;20052;-67
2023/12/20 13:57:31;;;;;;;16.40;4.93;;;;;;;;;;5001774;28;20065;-67
2023/12/20 13:59:58;;;;;;;9.48;4.32;;;;;;;;;;4966435;28;20377;-66
2023/12/20 14:02:24;;;;;;;13.68;4.88;;;;;;;;;;4972204;28;20491;-67
2023/12/20 14:04:53;;;;;;;16.00;4.22;;;;;;;;;;4955684;28;20080;-67
2023/12/20 14:07:19;;;;;;;11.88;4.05;;;;;;;;;;4975027;28;20037;-67
2023/12/20 14:09:45;;;;;;;8.20;3.03;;;;;;;;;;5008135;28;20024;-68
2023/12/20 14:12:12;;;;;;;14.80;3.65;;;;;;;;;;5004122;28;20120;-68
2023/12/20 14:14:47;;;;;;;19.25;4.28;;;;;;;;;;5034468;28;20024;-68
2023/12/20 14:17:18;;;;;;;9.82;3.22;;;;;;;;;;4977516;28;20031;-68
2023/12/20 14:19:44;;;;;;;16.58;3.40;;;;;;;;;;5011012;28;20054;-68
2023/12/20 14:22:10;;;;;;;6.20;2.72;;;;;;;;;;5051714;28;20021;-68
2023/12/20 14:24:36;;;;;;;10.98;3.53;;;;;;;;;;5047892;28;20099;-68
2023/12/20 14:27:03;;;;;;;9.77;3.42;;;;;;;;;;4981460;28;20527;-68
2023/12/20 14:29:29;;;;;;;15.32;3.75;;;;;;;;;;4963738;28;20118;-68
2023/12/20 14:31:55;;;;;;;9.15;2.72;;;;;;;;;;4979445;28;20027;-67
2023/12/20 14:34:24;;;;;;;6.72;3.83;;;;;;;;;;5053498;28;20029;-68
2023/12/20 14:36:50;;;;;;;10.40;3.10;;;;;;;;;;4991657;28;20039;-67